createdAt,value
2017-12-03T00:00:11.189Z,3.58
2017-12-03T00:02:47.785Z,3.83
2017-12-03T00:05:20.192Z,3.24
2017-12-03T00:07:53.503Z,3.38
2017-12-03T00:10:31.898Z,3.22
2017-12-03T00:13:07.032Z,3.12
2017-12-03T00:15:40.108Z,3.03
2017-12-03T00:18:12.044Z,3.08
2017-12-03T00:20:54.324Z,3.02
2017-12-03T00:23:26.216Z,3.24
2017-12-03T00:25:59.249Z,3.07
2017-12-03T00:28:32.017Z,3.13
2017-12-03T00:31:05.314Z,3.31
2017-12-03T00:33:37.014Z,3.40
2017-12-03T00:36:09.319Z,3.42
2017-12-03T00:38:43.114Z,3.59
2017-12-03T00:41:15.739Z,3.77
2017-12-03T00:43:47.137Z,3.47
2017-12-03T00:46:24.244Z,3.43
2017-12-03T00:49:01.061Z,3.70
2017-12-03T00:51:33.530Z,4.08
2017-12-03T00:54:05.437Z,4.23
2017-12-03T00:56:41.708Z,4.09
2017-12-03T00:59:14.615Z,3.65
2017-12-03T01:01:49.314Z,3.96
2017-12-03T01:04:20.798Z,3.50
2017-12-03T01:06:52.406Z,3.62
2017-12-03T01:09:24.412Z,3.58
2017-12-03T01:11:57.522Z,3.69
2017-12-03T01:14:41.514Z,3.60
2017-12-03T01:17:13.399Z,2.97
2017-12-03T01:19:46.608Z,2.99
2017-12-03T01:22:27.732Z,3.23
2017-12-03T01:24:59.613Z,3.08
2017-12-03T01:27:33.346Z,3.10
2017-12-03T01:30:07.413Z,3.27
2017-12-03T01:32:41.256Z,3.83
2017-12-03T01:35:13.755Z,3.60
2017-12-03T01:37:47.147Z,3.75
2017-12-03T01:40:19.161Z,3.99
2017-12-03T01:42:50.670Z,3.76
2017-12-03T01:45:23.871Z,3.44
2017-12-03T01:48:00.896Z,3.29
2017-12-03T01:50:33.379Z,3.12
2017-12-03T01:53:05.480Z,3.08
2017-12-03T01:55:37.781Z,2.99
2017-12-03T01:58:09.336Z,3.04
2017-12-03T02:00:45.303Z,3.33
2017-12-03T02:03:18.274Z,3.54
2017-12-03T02:05:56.587Z,3.32
2017-12-03T02:08:28.476Z,3.56
2017-12-03T02:11:00.158Z,3.49
2017-12-03T02:16:21.150Z,3.22
2017-12-03T02:18:53.751Z,3.43
2017-12-03T02:21:25.060Z,3.14
2017-12-03T02:23:57.514Z,3.24
2017-12-03T02:26:29.553Z,3.24
2017-12-03T02:29:01.461Z,3.20
2017-12-03T02:31:34.564Z,3.37
2017-12-03T02:34:11.590Z,3.68
2017-12-03T02:36:44.154Z,3.66
2017-12-03T02:39:18.167Z,3.95
2017-12-03T02:41:51.056Z,3.66
2017-12-03T02:44:27.975Z,3.75
2017-12-03T02:47:00.872Z,3.51
2017-12-03T02:49:35.192Z,3.51
2017-12-03T02:52:08.443Z,3.47
2017-12-03T02:54:45.578Z,3.89
2017-12-03T02:57:18.600Z,4.11
2017-12-03T02:59:52.384Z,4.10
2017-12-03T03:02:24.993Z,3.95
2017-12-03T03:04:56.590Z,3.92
2017-12-03T03:07:28.508Z,3.56
2017-12-03T03:10:01.150Z,3.89
2017-12-03T03:12:33.285Z,4.18
2017-12-03T03:15:10.185Z,4.47
2017-12-03T03:17:44.584Z,3.78
2017-12-03T03:20:20.093Z,3.56
2017-12-03T03:22:51.583Z,3.92
2017-12-03T03:25:22.977Z,4.19
2017-12-03T03:27:55.792Z,4.21
2017-12-03T03:30:31.000Z,3.71
2017-12-03T03:33:02.387Z,3.74
2017-12-03T03:35:35.390Z,3.65
2017-12-03T03:38:07.600Z,3.80
2017-12-03T03:40:41.887Z,4.08
2017-12-03T03:43:13.816Z,4.39
2017-12-03T03:45:47.708Z,4.05
2017-12-03T03:48:19.578Z,4.04
2017-12-03T03:50:51.878Z,4.40
2017-12-03T03:53:23.369Z,4.66
2017-12-03T03:55:54.971Z,4.53
2017-12-03T03:58:26.669Z,4.54
2017-12-03T04:00:58.787Z,4.81
2017-12-03T04:03:30.266Z,4.55
2017-12-03T04:06:01.879Z,4.60
2017-12-03T04:08:34.173Z,4.65
2017-12-03T04:11:05.578Z,4.71
2017-12-03T04:13:37.732Z,4.76
2017-12-03T04:16:09.977Z,4.38
2017-12-03T04:18:41.477Z,4.51
2017-12-03T04:21:13.188Z,4.73
2017-12-03T04:23:47.188Z,4.58
2017-12-03T04:26:20.731Z,4.83
2017-12-03T04:28:54.209Z,4.64
2017-12-03T04:31:31.042Z,4.43
2017-12-03T04:34:03.252Z,4.13
2017-12-03T04:36:36.019Z,4.61
2017-12-03T04:39:08.128Z,4.59
2017-12-03T04:41:40.024Z,4.54
2017-12-03T04:44:21.831Z,4.68
2017-12-03T04:46:53.830Z,4.12
2017-12-03T04:49:25.438Z,4.04
2017-12-03T04:51:58.148Z,3.90
2017-12-03T04:54:30.857Z,3.61
2017-12-03T04:57:02.755Z,4.04
2017-12-03T04:59:35.729Z,3.96
2017-12-03T05:02:07.942Z,3.55
2017-12-03T05:04:39.516Z,3.89
2017-12-03T05:07:11.029Z,3.40
2017-12-03T05:09:43.743Z,3.29
2017-12-03T05:12:15.514Z,3.21
2017-12-03T05:14:47.733Z,3.14
2017-12-03T05:17:19.629Z,3.36
2017-12-03T05:19:51.425Z,3.18
2017-12-03T05:22:22.726Z,2.83
2017-12-03T05:24:54.026Z,2.63
2017-12-03T05:27:25.526Z,2.56
2017-12-03T05:29:58.022Z,2.20
2017-12-03T05:32:33.622Z,2.60
2017-12-03T05:35:05.328Z,2.71
2017-12-03T05:37:36.827Z,2.44
2017-12-03T05:40:08.315Z,2.59
2017-12-03T05:42:39.616Z,2.57
2017-12-03T05:45:13.914Z,2.50
2017-12-03T05:47:46.210Z,2.65
2017-12-03T05:50:18.011Z,3.08
2017-12-03T05:52:50.127Z,3.16
2017-12-03T05:55:21.424Z,3.13
2017-12-03T05:57:54.314Z,2.90
2017-12-03T06:00:26.120Z,2.63
2017-12-03T06:02:58.638Z,2.78
2017-12-03T06:05:30.344Z,2.52
2017-12-03T06:08:06.941Z,2.55
2017-12-03T06:10:45.648Z,2.46
2017-12-03T06:13:17.644Z,2.36
2017-12-03T06:15:54.355Z,2.64
2017-12-03T06:18:26.645Z,2.52
2017-12-03T06:20:59.753Z,2.68
2017-12-03T06:23:31.767Z,2.55
2017-12-03T06:26:04.659Z,2.86
2017-12-03T06:28:36.566Z,2.94
2017-12-03T06:31:08.258Z,2.79
2017-12-03T06:33:40.710Z,2.63
2017-12-03T06:36:11.967Z,2.55
2017-12-03T06:38:44.864Z,2.52
2017-12-03T06:41:16.151Z,2.31
2017-12-03T06:43:54.048Z,2.59
2017-12-03T06:46:27.649Z,2.62
2017-12-03T06:48:59.846Z,2.57
2017-12-03T06:51:33.652Z,2.58
2017-12-03T06:54:05.549Z,2.70
2017-12-03T06:56:38.146Z,2.70
2017-12-03T06:59:09.817Z,3.07
2017-12-03T07:01:42.839Z,3.08
2017-12-03T07:04:14.142Z,2.96
2017-12-03T07:06:46.746Z,2.48
2017-12-03T07:09:19.052Z,2.47
2017-12-03T07:11:50.871Z,2.83
2017-12-03T07:14:23.854Z,3.11
2017-12-03T07:16:56.172Z,2.85
2017-12-03T07:19:27.665Z,2.76
2017-12-03T07:21:58.963Z,2.69
2017-12-03T07:24:31.463Z,2.64
2017-12-03T07:27:02.665Z,2.84
2017-12-03T07:29:34.670Z,2.91
2017-12-03T07:32:07.591Z,3.14
2017-12-03T07:34:39.871Z,2.58
2017-12-03T07:37:11.580Z,2.56
2017-12-03T07:39:43.475Z,2.38
2017-12-03T07:42:16.081Z,2.75
2017-12-03T07:44:47.488Z,2.86
2017-12-03T07:47:19.380Z,2.93
2017-12-03T07:49:51.075Z,2.79
2017-12-03T07:52:23.410Z,2.63
2017-12-03T07:54:55.579Z,2.71
2017-12-03T07:57:27.088Z,2.62
2017-12-03T07:59:58.772Z,2.86
2017-12-03T08:02:31.375Z,2.81
2017-12-03T08:05:02.972Z,2.99
2017-12-03T08:07:36.577Z,2.58
2017-12-03T08:10:07.789Z,2.92
2017-12-03T08:12:39.879Z,2.68
2017-12-03T08:15:12.711Z,2.67
2017-12-03T08:17:44.182Z,2.92
2017-12-03T08:20:17.395Z,2.77
2017-12-03T08:22:48.871Z,2.74
2017-12-03T08:25:20.168Z,3.07
2017-12-03T08:27:51.874Z,3.08
2017-12-03T08:30:23.364Z,3.08
2017-12-03T08:32:55.873Z,2.84
2017-12-03T08:35:27.354Z,2.73
2017-12-03T08:38:00.059Z,2.71
2017-12-03T08:40:32.068Z,2.73
2017-12-03T08:43:03.558Z,2.72
2017-12-03T08:45:36.471Z,2.63
2017-12-03T08:48:08.380Z,2.74
2017-12-03T08:50:40.076Z,2.74
2017-12-03T08:53:19.576Z,2.80
2017-12-03T08:55:51.302Z,3.08
2017-12-03T08:58:23.308Z,2.81
2017-12-03T09:00:57.243Z,2.75
2017-12-03T09:03:30.613Z,2.64
2017-12-03T09:06:03.836Z,2.86
2017-12-03T09:08:37.033Z,2.71
2017-12-03T09:11:09.033Z,3.06
2017-12-03T09:13:41.931Z,3.01
2017-12-03T09:16:16.925Z,2.86
2017-12-03T09:18:48.432Z,3.01
2017-12-03T09:21:20.029Z,3.06
2017-12-03T09:23:51.935Z,3.27
2017-12-03T09:26:23.347Z,3.18
2017-12-03T09:28:56.124Z,3.12
2017-12-03T09:31:28.717Z,3.17
2017-12-03T09:34:00.218Z,2.97
2017-12-03T09:36:31.525Z,3.07
2017-12-03T09:39:03.305Z,3.20
2017-12-03T09:41:35.729Z,3.16
2017-12-03T09:44:07.420Z,2.99
2017-12-03T09:46:45.305Z,3.05
2017-12-03T09:49:19.128Z,3.06
2017-12-03T09:51:52.415Z,2.97
2017-12-03T09:54:24.104Z,3.03
2017-12-03T09:56:59.702Z,3.14
2017-12-03T09:59:31.596Z,2.94
2017-12-03T10:02:03.146Z,3.02
2017-12-03T10:04:34.602Z,2.92
2017-12-03T10:07:12.707Z,2.96
2017-12-03T10:09:48.646Z,3.16
2017-12-03T10:12:26.731Z,2.67
2017-12-03T10:14:58.842Z,2.97
2017-12-03T10:17:30.830Z,2.91
2017-12-03T10:20:03.733Z,3.12
2017-12-03T10:22:42.323Z,2.68
2017-12-03T10:25:15.035Z,2.96
2017-12-03T10:27:51.657Z,3.09
2017-12-03T10:30:24.637Z,2.82
2017-12-03T10:32:56.341Z,2.91
2017-12-03T10:35:29.969Z,2.92
2017-12-03T10:38:09.844Z,2.88
2017-12-03T10:40:41.226Z,2.73
2017-12-03T10:43:14.891Z,2.80
2017-12-03T10:45:46.645Z,3.07
2017-12-03T10:48:18.330Z,2.97
2017-12-03T10:50:50.421Z,3.25
2017-12-03T10:53:21.923Z,3.45
2017-12-03T10:55:53.346Z,3.53
2017-12-03T10:58:28.541Z,3.78
2017-12-03T11:01:17.317Z,3.41
2017-12-03T11:03:49.028Z,3.46
2017-12-03T11:06:20.611Z,3.75
2017-12-03T11:08:52.211Z,3.87
2017-12-03T11:11:24.529Z,3.87
2017-12-03T11:13:56.326Z,3.57
2017-12-03T11:16:28.521Z,3.26
2017-12-03T11:19:01.225Z,3.29
2017-12-03T11:21:34.933Z,3.64
2017-12-03T11:24:07.628Z,3.38
2017-12-03T11:26:48.319Z,3.20
2017-12-03T11:29:26.129Z,3.38
2017-12-03T11:31:58.036Z,3.35
2017-12-03T11:34:30.513Z,3.72
2017-12-03T11:37:03.514Z,3.78
2017-12-03T11:39:42.414Z,3.84
2017-12-03T11:42:14.423Z,3.94
2017-12-03T11:44:48.345Z,3.79
2017-12-03T11:47:20.945Z,3.77
2017-12-03T11:49:52.447Z,3.92
2017-12-03T11:52:24.544Z,4.03
2017-12-03T11:54:57.059Z,4.15
2017-12-03T11:57:29.154Z,4.01
2017-12-03T12:00:01.443Z,3.88
2017-12-03T12:02:37.684Z,4.23
2017-12-03T12:05:09.582Z,4.25
2017-12-03T12:07:42.979Z,4.45
2017-12-03T12:10:18.155Z,4.52
2017-12-03T12:12:52.781Z,4.68
2017-12-03T12:15:28.456Z,4.85
2017-12-03T12:18:03.469Z,5.04
2017-12-03T12:20:36.853Z,4.97
2017-12-03T12:23:09.142Z,5.06
2017-12-03T12:25:43.251Z,4.87
2017-12-03T12:28:22.132Z,4.86
2017-12-03T12:30:55.046Z,4.75
2017-12-03T12:33:29.766Z,4.84
2017-12-03T12:36:01.420Z,4.78
2017-12-03T12:38:34.012Z,4.71
2017-12-03T12:41:05.523Z,4.81
2017-12-03T12:43:40.013Z,4.86
2017-12-03T12:48:41.780Z,4.89
2017-12-03T12:51:17.529Z,4.94
2017-12-03T12:53:51.840Z,4.87
2017-12-03T12:56:27.403Z,4.95
2017-12-03T12:59:05.035Z,4.95
2017-12-03T13:01:36.572Z,4.92
2017-12-03T13:04:08.402Z,5.06
2017-12-03T13:06:45.763Z,5.06
2017-12-03T13:09:19.900Z,5.19
2017-12-03T13:11:52.493Z,5.24
2017-12-03T13:14:26.204Z,5.21
2017-12-03T13:16:59.206Z,5.07
2017-12-03T13:19:34.935Z,5.13
2017-12-03T13:22:10.176Z,5.06
2017-12-03T13:24:51.915Z,5.14
2017-12-03T13:27:26.648Z,5.16
2017-12-03T13:30:01.046Z,5.11
2017-12-03T13:32:59.681Z,5.13
2017-12-03T13:35:41.625Z,5.13
2017-12-03T13:38:15.123Z,5.11
2017-12-03T13:43:26.298Z,5.28
2017-12-03T13:46:00.513Z,5.21
2017-12-03T13:48:45.603Z,5.26
2017-12-03T13:51:24.192Z,4.89
2017-12-03T13:53:58.921Z,5.05
2017-12-03T13:56:31.491Z,5.06
2017-12-03T13:59:10.396Z,5.20
2017-12-03T14:01:46.088Z,5.27
2017-12-03T14:04:18.996Z,5.32
2017-12-03T14:06:53.065Z,5.33
2017-12-03T14:09:27.106Z,5.38
2017-12-03T14:12:02.394Z,5.22
2017-12-03T14:17:19.809Z,5.12
2017-12-03T14:19:51.784Z,5.10
2017-12-03T14:22:27.357Z,5.02
2017-12-03T14:25:02.882Z,5.11
2017-12-03T14:27:37.536Z,5.14
2017-12-03T14:30:14.162Z,5.27
2017-12-03T14:32:45.299Z,5.14
2017-12-03T14:35:16.097Z,5.19
2017-12-03T14:37:48.764Z,5.23
2017-12-03T14:40:21.763Z,5.08
2017-12-03T14:42:54.977Z,5.07
2017-12-03T14:45:29.955Z,5.23
2017-12-03T14:48:09.858Z,5.32
2017-12-03T14:50:47.460Z,5.29
2017-12-03T14:53:18.810Z,5.23
2017-12-03T14:55:52.463Z,5.27
2017-12-03T14:58:25.661Z,5.31
2017-12-03T15:01:07.362Z,5.40
2017-12-03T15:03:41.959Z,5.42
2017-12-03T15:06:13.029Z,5.36
2017-12-03T15:08:45.089Z,5.41
2017-12-03T15:11:17.843Z,5.43
2017-12-03T15:13:49.855Z,5.38
2017-12-03T15:16:22.561Z,5.30
2017-12-03T15:18:55.865Z,5.39
2017-12-03T15:21:29.456Z,5.60
2017-12-03T15:24:00.301Z,5.56
2017-12-03T15:26:34.108Z,5.68
2017-12-03T15:29:10.067Z,5.36
2017-12-03T15:31:51.527Z,5.54
2017-12-03T15:34:24.804Z,5.81
2017-12-03T15:36:55.833Z,5.91
2017-12-03T15:39:29.410Z,5.85
2017-12-03T15:42:01.439Z,5.86
2017-12-03T15:44:33.528Z,5.83
2017-12-03T15:47:06.934Z,5.94
2017-12-03T15:49:49.288Z,6.05
2017-12-03T15:52:21.530Z,5.92
2017-12-03T15:54:54.143Z,5.95
2017-12-03T15:57:37.061Z,6.05
2017-12-03T16:00:17.936Z,5.97
2017-12-03T16:02:52.634Z,6.07
2017-12-03T16:05:25.528Z,6.01
2017-12-03T16:07:59.029Z,5.89
2017-12-03T16:10:32.212Z,5.96
2017-12-03T16:13:04.910Z,5.99
2017-12-03T16:15:40.484Z,5.82
2017-12-03T16:18:14.016Z,5.77
2017-12-03T16:20:53.404Z,5.86
2017-12-03T16:23:27.228Z,5.87
2017-12-03T16:26:01.339Z,5.90
2017-12-03T16:28:38.768Z,5.86
2017-12-03T16:31:11.812Z,6.04
2017-12-03T16:33:45.538Z,6.00
2017-12-03T16:36:17.906Z,5.99
2017-12-03T16:38:48.643Z,6.02
2017-12-03T16:41:22.955Z,5.84
2017-12-03T16:43:57.121Z,5.74
2017-12-03T16:46:30.322Z,5.68
2017-12-03T16:49:03.902Z,5.78
2017-12-03T16:51:36.447Z,5.80
2017-12-03T16:54:10.733Z,5.72
2017-12-03T16:56:46.607Z,5.77
2017-12-03T16:59:18.734Z,5.88
2017-12-03T17:01:53.636Z,5.91
2017-12-03T17:04:28.195Z,5.98
2017-12-03T17:06:59.563Z,5.89
2017-12-03T17:09:38.219Z,5.80
2017-12-03T17:12:14.119Z,5.82
2017-12-03T17:14:48.129Z,5.93
2017-12-03T17:17:21.824Z,6.07
2017-12-03T17:19:56.737Z,6.01
2017-12-03T17:22:30.654Z,5.91
2017-12-03T17:25:09.139Z,5.82
2017-12-03T17:27:43.697Z,5.87
2017-12-03T17:30:18.734Z,5.84
2017-12-03T17:32:59.258Z,5.80
2017-12-03T17:35:33.641Z,5.92
2017-12-03T17:38:06.312Z,5.87
2017-12-03T17:40:50.953Z,6.01
2017-12-03T17:43:31.446Z,5.88
2017-12-03T17:46:04.134Z,5.93
2017-12-03T17:48:37.127Z,5.97
2017-12-03T17:51:10.246Z,5.92
2017-12-03T17:53:45.930Z,5.92
2017-12-03T17:56:17.615Z,5.85
2017-12-03T17:58:49.577Z,5.85
2017-12-03T18:01:23.673Z,5.82
2017-12-03T18:04:02.596Z,5.82
2017-12-03T18:06:36.355Z,5.52
2017-12-03T18:09:08.516Z,5.80
2017-12-03T18:11:54.028Z,5.82
2017-12-03T18:14:39.489Z,5.80
2017-12-03T18:17:21.507Z,5.84
2017-12-03T18:19:53.755Z,5.88
2017-12-03T18:22:25.980Z,5.92
2017-12-03T18:24:58.164Z,6.04
2017-12-03T18:27:32.569Z,6.08
2017-12-03T18:30:09.162Z,6.12
2017-12-03T18:32:48.990Z,5.93
2017-12-03T18:35:24.707Z,5.86
2017-12-03T18:38:01.812Z,5.93
2017-12-03T18:40:36.927Z,5.99
2017-12-03T18:43:10.830Z,6.05
2017-12-03T18:45:45.117Z,6.12
2017-12-03T18:48:18.186Z,6.20
2017-12-03T18:50:53.309Z,6.15
2017-12-03T18:53:26.494Z,6.15
2017-12-03T18:56:00.301Z,6.11
2017-12-03T18:58:32.475Z,6.08
2017-12-03T19:01:04.770Z,6.15
2017-12-03T19:03:38.782Z,5.89
2017-12-03T19:06:11.491Z,6.02
2017-12-03T19:08:45.697Z,6.22
2017-12-03T19:11:18.410Z,6.20
2017-12-03T19:13:50.517Z,6.21
2017-12-03T19:16:22.050Z,6.25
2017-12-03T19:18:54.464Z,6.23
2017-12-03T19:21:26.621Z,6.18
2017-12-03T19:23:59.968Z,6.39
2017-12-03T19:29:22.489Z,6.38
2017-12-03T19:31:57.757Z,6.37
2017-12-03T19:34:29.697Z,6.34
2017-12-03T19:37:01.298Z,6.29
2017-12-03T19:39:33.983Z,6.45
2017-12-03T19:42:06.459Z,6.56
2017-12-03T19:44:39.068Z,6.56
2017-12-03T19:47:12.650Z,6.47
2017-12-03T19:49:46.210Z,6.39
2017-12-03T19:52:19.471Z,6.26
2017-12-03T19:54:54.993Z,6.09
2017-12-03T19:57:26.843Z,6.18
2017-12-03T19:59:58.976Z,6.26
2017-12-03T20:02:33.783Z,6.24
2017-12-03T20:05:04.432Z,6.26
2017-12-03T20:07:40.102Z,6.34
2017-12-03T20:10:12.093Z,6.54
2017-12-03T20:12:45.497Z,6.62
2017-12-03T20:15:26.294Z,6.64
2017-12-03T20:18:00.338Z,6.44
2017-12-03T20:20:33.616Z,6.41
2017-12-03T20:23:07.911Z,6.42
2017-12-03T20:25:40.401Z,6.52
2017-12-03T20:28:12.997Z,6.69
2017-12-03T20:30:49.182Z,6.71
2017-12-03T20:33:22.098Z,6.53
2017-12-03T20:35:55.940Z,6.47
2017-12-03T20:38:32.695Z,6.58
2017-12-03T20:41:05.087Z,6.71
2017-12-03T20:43:41.234Z,6.68
2017-12-03T20:46:14.977Z,6.71
2017-12-03T20:48:49.309Z,6.79
2017-12-03T20:51:21.586Z,6.91
2017-12-03T20:53:52.650Z,6.89
2017-12-03T20:56:24.732Z,6.71
2017-12-03T20:58:56.493Z,6.74
2017-12-03T21:01:29.008Z,6.86
2017-12-03T21:04:03.000Z,6.81
2017-12-03T21:06:35.424Z,6.81
2017-12-03T21:09:09.547Z,6.95
2017-12-03T21:11:47.931Z,6.98
2017-12-03T21:14:18.423Z,6.86
2017-12-03T21:16:52.050Z,6.69
2017-12-03T21:19:31.720Z,6.74
2017-12-03T21:22:05.746Z,6.76
2017-12-03T21:24:38.969Z,6.63
2017-12-03T21:27:15.641Z,6.50
2017-12-03T21:29:50.143Z,6.48
2017-12-03T21:32:23.377Z,6.47
2017-12-03T21:34:56.638Z,6.62
2017-12-03T21:37:28.685Z,6.67
2017-12-03T21:40:05.248Z,6.63
2017-12-03T21:42:42.957Z,6.45
2017-12-03T21:45:19.142Z,6.55
2017-12-03T21:47:54.032Z,6.73
2017-12-03T21:50:28.301Z,6.78
2017-12-03T21:53:02.646Z,6.91
2017-12-03T21:55:39.004Z,6.70
2017-12-03T21:58:12.846Z,6.72
2017-12-03T22:00:45.761Z,6.74
2017-12-03T22:03:19.824Z,6.75
2017-12-03T22:05:56.047Z,6.76
2017-12-03T22:08:28.159Z,6.72
2017-12-03T22:10:59.054Z,6.66
2017-12-03T22:13:31.113Z,6.67
2017-12-03T22:16:05.032Z,6.72
2017-12-03T22:18:40.022Z,6.68
2017-12-03T22:21:11.806Z,6.52
2017-12-03T22:23:45.001Z,6.56
2017-12-03T22:26:18.403Z,6.64
2017-12-03T22:28:52.826Z,6.60
2017-12-03T22:34:11.109Z,6.63
2017-12-03T22:37:01.880Z,6.61
2017-12-03T22:39:37.820Z,6.60
2017-12-03T22:42:09.702Z,6.65
2017-12-03T22:44:43.266Z,6.69
2017-12-03T22:47:15.311Z,6.68
2017-12-03T22:49:47.921Z,6.62
2017-12-03T22:52:20.035Z,6.60
2017-12-03T22:54:58.561Z,6.63
2017-12-03T22:57:31.981Z,6.72
2017-12-03T23:00:10.135Z,6.74
2017-12-03T23:02:44.655Z,6.70
2017-12-03T23:05:17.948Z,6.73
2017-12-03T23:07:53.130Z,6.66
2017-12-03T23:10:25.444Z,6.79
2017-12-03T23:12:57.361Z,6.91
2017-12-03T23:15:32.652Z,7.02
2017-12-03T23:18:05.310Z,6.99
2017-12-03T23:20:38.250Z,7.13
2017-12-03T23:23:10.243Z,7.21
2017-12-03T23:25:50.892Z,7.25
2017-12-03T23:28:27.135Z,7.17
2017-12-03T23:31:00.962Z,7.22
2017-12-03T23:33:34.945Z,7.27
2017-12-03T23:36:07.994Z,7.02
2017-12-03T23:38:41.028Z,6.91
2017-12-03T23:41:13.727Z,6.94
2017-12-03T23:43:47.980Z,6.90
2017-12-03T23:46:21.427Z,6.82
2017-12-03T23:48:53.552Z,6.80
2017-12-03T23:51:26.040Z,6.79
2017-12-03T23:53:59.294Z,6.72
2017-12-03T23:56:31.660Z,6.72
2017-12-03T23:59:04.849Z,6.80
